createdAt,value
2018-07-06T00:02:04.243Z,31.80
2018-07-06T00:04:46.664Z,31.90
2018-07-06T00:07:30.446Z,31.80
2018-07-06T00:10:12.970Z,31.90
2018-07-06T00:12:55.194Z,31.90
2018-07-06T00:15:37.606Z,31.90
2018-07-06T00:18:20.296Z,31.90
2018-07-06T00:21:02.894Z,31.90
2018-07-06T00:23:45.232Z,31.90
2018-07-06T00:26:27.838Z,31.90
2018-07-06T00:29:10.354Z,31.90
2018-07-06T00:31:53.186Z,31.90
2018-07-06T00:37:12.541Z,31.90
2018-07-06T00:39:54.813Z,32.00
2018-07-06T00:42:37.909Z,32.00
2018-07-06T00:45:20.577Z,32.00
2018-07-06T00:48:04.176Z,32.00
2018-07-06T00:50:46.932Z,32.00
2018-07-06T00:53:30.637Z,32.10
2018-07-06T00:56:13.134Z,32.10
2018-07-06T00:58:56.562Z,32.10
2018-07-06T01:01:39.275Z,32.10
2018-07-06T01:04:21.461Z,32.20
2018-07-06T01:07:04.107Z,32.20
2018-07-06T01:09:46.660Z,32.20
2018-07-06T01:12:33.539Z,32.20
2018-07-06T01:15:20.237Z,32.20
2018-07-06T01:18:02.523Z,32.20
2018-07-06T01:23:22.173Z,32.30
2018-07-06T01:26:04.635Z,32.30
2018-07-06T01:28:47.339Z,32.30
2018-07-06T01:34:06.906Z,32.40
2018-07-06T01:36:49.571Z,32.40
2018-07-06T01:39:32.569Z,32.50
2018-07-06T01:42:15.448Z,32.50
2018-07-06T01:44:57.899Z,32.60
2018-07-06T01:47:40.102Z,32.60
2018-07-06T01:50:24.322Z,32.70
2018-07-06T01:53:06.715Z,32.70
2018-07-06T01:58:26.198Z,32.70
2018-07-06T02:01:08.609Z,32.70
2018-07-06T02:06:27.643Z,32.80
2018-07-06T02:09:10.348Z,32.80
2018-07-06T02:11:52.945Z,32.80
2018-07-06T02:14:35.778Z,32.90
2018-07-06T02:17:18.830Z,33.00
2018-07-06T02:20:01.428Z,33.10
2018-07-06T02:22:44.305Z,33.20
2018-07-06T02:25:27.896Z,33.30
2018-07-06T02:28:10.872Z,33.50
2018-07-06T02:30:53.568Z,33.70
2018-07-06T02:33:35.631Z,33.80
2018-07-06T02:36:18.326Z,33.90
2018-07-06T02:39:00.822Z,34.00
2018-07-06T02:44:20.302Z,34.20
2018-07-06T02:47:03.064Z,34.20
2018-07-06T02:49:45.806Z,34.30
2018-07-06T02:52:29.618Z,34.30
2018-07-06T02:55:13.354Z,34.30
2018-07-06T02:57:55.740Z,34.30
2018-07-06T03:00:38.004Z,34.30
2018-07-06T03:03:20.577Z,34.40
2018-07-06T03:06:03.138Z,34.40
2018-07-06T03:08:45.362Z,34.40
2018-07-06T03:11:27.836Z,34.50
2018-07-06T03:14:10.562Z,34.50
2018-07-06T03:16:52.825Z,34.60
2018-07-06T03:19:36.540Z,34.60
2018-07-06T03:22:19.007Z,34.70
2018-07-06T03:25:01.936Z,34.70
2018-07-06T03:27:44.084Z,34.80
2018-07-06T03:30:27.917Z,34.90
2018-07-06T03:33:10.696Z,34.90
2018-07-06T03:35:54.135Z,35.00
2018-07-06T03:38:36.819Z,35.10
2018-07-06T03:41:19.320Z,35.30
2018-07-06T03:46:39.081Z,35.50
2018-07-06T03:49:22.046Z,35.60
2018-07-06T03:52:04.567Z,35.60
2018-07-06T03:54:49.135Z,35.70
2018-07-06T03:57:31.847Z,35.70
2018-07-06T04:00:14.629Z,35.80
2018-07-06T04:02:56.992Z,35.80
2018-07-06T04:05:40.620Z,35.80
2018-07-06T04:08:23.070Z,35.90
2018-07-06T04:11:05.921Z,35.90
2018-07-06T04:13:48.497Z,35.90
2018-07-06T04:16:32.355Z,35.90
2018-07-06T04:19:15.031Z,35.90
2018-07-06T04:21:58.153Z,35.90
2018-07-06T04:27:17.405Z,35.90
2018-07-06T04:32:36.495Z,35.90
2018-07-06T04:35:19.084Z,35.90
2018-07-06T04:38:01.720Z,36.00
2018-07-06T04:40:44.177Z,36.00
2018-07-06T04:43:26.497Z,36.10
2018-07-06T04:46:09.296Z,36.20
2018-07-06T04:48:51.826Z,36.20
2018-07-06T04:54:11.576Z,36.20
2018-07-06T04:56:55.953Z,36.20
2018-07-06T04:59:38.503Z,36.10
2018-07-06T05:02:21.314Z,36.10
2018-07-06T05:05:03.965Z,36.10
2018-07-06T05:07:46.635Z,36.10
2018-07-06T05:10:43.705Z,36.20
2018-07-06T05:13:26.452Z,36.20
2018-07-06T05:16:09.976Z,36.20
2018-07-06T05:18:52.527Z,36.20
2018-07-06T05:21:35.203Z,36.30
2018-07-06T05:24:17.633Z,36.30
2018-07-06T05:27:00.195Z,36.40
2018-07-06T05:29:42.935Z,36.50
2018-07-06T05:32:26.397Z,36.60
2018-07-06T05:35:08.951Z,36.60
2018-07-06T05:37:51.639Z,36.70
2018-07-06T05:40:33.731Z,36.80
2018-07-06T05:43:16.402Z,36.90
2018-07-06T05:45:59.137Z,36.90
2018-07-06T05:48:41.986Z,37.00
2018-07-06T05:51:24.518Z,37.10
2018-07-06T05:54:07.089Z,37.10
2018-07-06T05:56:50.542Z,37.20
2018-07-06T05:59:33.485Z,37.20
2018-07-06T06:02:16.327Z,37.20
2018-07-06T06:04:59.027Z,37.20
2018-07-06T06:07:29.393Z,37.20
2018-07-06T06:10:03.489Z,37.20
2018-07-06T06:15:10.043Z,37.10
2018-07-06T06:17:43.976Z,37.10
2018-07-06T06:20:19.936Z,37.10
2018-07-06T06:22:53.862Z,37.10
2018-07-06T06:25:27.383Z,37.10
2018-07-06T06:30:37.913Z,37.20
2018-07-06T06:35:45.061Z,37.20
2018-07-06T06:38:18.856Z,37.20
2018-07-06T06:40:53.010Z,37.30
2018-07-06T06:43:26.602Z,37.30
2018-07-06T06:46:00.334Z,37.30
2018-07-06T06:48:34.012Z,37.30
2018-07-06T06:51:08.255Z,37.30
2018-07-06T06:53:42.957Z,37.30
2018-07-06T06:56:17.052Z,37.30
2018-07-06T06:58:51.916Z,37.20
2018-07-06T07:01:25.545Z,37.20
2018-07-06T07:03:59.481Z,37.10
2018-07-06T07:06:33.547Z,37.10
2018-07-06T07:09:08.143Z,37.00
2018-07-06T07:11:41.856Z,36.90
2018-07-06T07:14:16.258Z,36.90
2018-07-06T07:16:49.832Z,36.80
2018-07-06T07:19:23.883Z,36.80
2018-07-06T07:21:57.708Z,36.70
2018-07-06T07:24:31.831Z,36.70
2018-07-06T07:27:06.134Z,36.70
2018-07-06T07:29:39.319Z,36.60
2018-07-06T07:32:13.124Z,36.50
2018-07-06T07:37:20.456Z,36.50
2018-07-06T07:39:54.784Z,36.40
2018-07-06T07:42:29.808Z,36.50
2018-07-06T07:45:04.012Z,36.50
2018-07-06T07:47:38.161Z,36.50
2018-07-06T07:50:12.531Z,36.50
2018-07-06T07:52:55.022Z,36.60
2018-07-06T07:58:03.115Z,36.60
2018-07-06T08:00:38.754Z,36.60
2018-07-06T08:28:47.990Z,36.60
2018-07-06T08:35:02.426Z,35.50
2018-07-06T08:37:46.193Z,35.60
2018-07-06T08:40:20.709Z,35.80
2018-07-06T08:42:58.306Z,35.90
2018-07-06T08:45:32.757Z,36.00
2018-07-06T08:48:06.729Z,36.10
2018-07-06T08:50:40.849Z,36.30
2018-07-06T08:53:14.663Z,36.40
2018-07-06T08:55:48.910Z,36.50
2018-07-06T08:58:22.541Z,36.60
2018-07-06T09:00:57.380Z,36.60
2018-07-06T09:03:32.155Z,36.70
2018-07-06T09:06:06.008Z,36.70
2018-07-06T09:08:40.234Z,36.70
2018-07-06T09:11:14.521Z,36.70
2018-07-06T09:13:58.374Z,36.70
2018-07-06T09:16:33.510Z,36.60
2018-07-06T09:19:07.360Z,36.60
2018-07-06T09:21:42.873Z,36.50
2018-07-06T09:24:17.164Z,36.50
2018-07-06T09:26:51.193Z,36.40
2018-07-06T09:29:25.171Z,36.30
2018-07-06T09:31:59.390Z,36.30
2018-07-06T09:34:33.085Z,36.10
2018-07-06T09:37:07.127Z,36.00
2018-07-06T09:39:42.166Z,35.90
2018-07-06T09:42:16.244Z,35.80
2018-07-06T09:44:50.225Z,35.70
2018-07-06T09:47:24.117Z,35.60
2018-07-06T09:49:57.834Z,35.60
2018-07-06T09:52:31.558Z,35.50
2018-07-06T09:57:37.912Z,35.30
2018-07-06T10:00:15.675Z,35.30
2018-07-06T10:02:49.498Z,35.20
2018-07-06T10:05:24.071Z,35.20
2018-07-06T10:07:58.823Z,35.10
2018-07-06T10:10:32.879Z,35.10
2018-07-06T10:13:07.000Z,35.00
2018-07-06T10:15:41.238Z,35.00
2018-07-06T10:23:20.235Z,34.90
2018-07-06T10:25:54.363Z,34.90
2018-07-06T10:28:39.145Z,34.80
2018-07-06T10:31:33.329Z,34.80
2018-07-06T10:36:39.030Z,34.60
2018-07-06T10:39:12.948Z,34.60
2018-07-06T11:14:19.090Z,34.60
2018-07-06T11:16:54.099Z,34.60
2018-07-06T11:19:27.966Z,33.20
2018-07-06T11:22:01.899Z,33.20
2018-07-06T11:24:35.789Z,33.20
2018-07-06T11:29:42.370Z,33.40
2018-07-06T11:32:16.135Z,33.50
2018-07-06T11:34:51.151Z,33.50
2018-07-06T11:37:25.018Z,33.60
2018-07-06T11:45:03.969Z,33.70
2018-07-06T11:47:40.610Z,33.80
2018-07-06T11:50:14.367Z,33.80
2018-07-06T11:52:49.180Z,33.80
2018-07-06T11:55:22.882Z,33.90
2018-07-06T11:57:57.463Z,33.90
2018-07-06T12:00:31.209Z,33.90
2018-07-06T12:03:05.496Z,33.90
2018-07-06T12:05:39.243Z,33.90
2018-07-06T12:08:13.395Z,33.90
2018-07-06T12:10:47.127Z,33.90
2018-07-06T12:13:22.815Z,33.90
2018-07-06T12:18:31.223Z,34.00
2018-07-06T12:21:05.949Z,34.00
2018-07-06T12:23:39.622Z,34.00
2018-07-06T12:45:04.851Z,34.00
2018-07-06T12:47:38.556Z,34.00
2018-07-06T12:50:13.112Z,33.10
2018-07-06T12:52:46.896Z,33.00
2018-07-06T12:55:20.666Z,33.00
2018-07-06T12:57:54.974Z,33.00
2018-07-06T13:00:28.445Z,33.10
2018-07-06T13:05:34.817Z,33.10
2018-07-06T13:08:08.831Z,33.20
2018-07-06T13:10:43.600Z,33.20
2018-07-06T13:13:17.631Z,33.20
2018-07-06T13:15:51.832Z,33.20
2018-07-06T13:18:25.845Z,33.30
2018-07-06T13:21:02.073Z,33.30
2018-07-06T13:23:35.925Z,33.30
2018-07-06T13:26:09.482Z,33.30
2018-07-06T13:28:43.113Z,33.30
2018-07-06T13:31:17.201Z,33.30
2018-07-06T13:33:51.048Z,33.30
2018-07-06T13:36:24.658Z,33.30
2018-07-06T13:38:58.953Z,33.30
2018-07-06T13:41:32.605Z,33.30
2018-07-06T13:46:39.430Z,33.20
2018-07-06T13:49:13.340Z,33.20
2018-07-06T13:54:24.965Z,33.20
2018-07-06T13:56:59.143Z,33.20
2018-07-06T13:59:33.101Z,33.20
2018-07-06T14:02:10.343Z,33.20
2018-07-06T14:04:44.317Z,33.20
2018-07-06T14:07:18.496Z,33.20
2018-07-06T14:09:51.963Z,33.20
2018-07-06T14:14:58.148Z,33.20
2018-07-06T14:20:05.130Z,33.20
2018-07-06T14:22:42.133Z,33.20
2018-07-06T14:25:16.066Z,33.20
2018-07-06T14:27:50.504Z,33.20
2018-07-06T14:30:24.028Z,33.20
2018-07-06T14:32:57.759Z,33.20
2018-07-06T14:35:31.846Z,33.30
2018-07-06T14:38:05.463Z,33.20
2018-07-06T14:40:38.700Z,33.20
2018-07-06T14:43:12.934Z,33.20
2018-07-06T14:45:46.868Z,33.20
2018-07-06T14:48:20.934Z,33.20
2018-07-06T14:50:55.009Z,33.20
2018-07-06T14:53:29.058Z,33.20
2018-07-06T14:56:03.308Z,33.20
2018-07-06T14:58:36.979Z,33.20
2018-07-06T15:01:10.493Z,33.20
2018-07-06T15:06:18.026Z,33.20
2018-07-06T15:08:52.396Z,33.20
2018-07-06T15:11:26.317Z,33.20
2018-07-06T15:14:00.102Z,33.20
2018-07-06T15:16:34.283Z,33.20
2018-07-06T15:19:08.635Z,33.20
2018-07-06T15:21:42.444Z,33.20
2018-07-06T15:24:17.672Z,33.20
2018-07-06T15:26:51.491Z,33.20
2018-07-06T15:31:59.035Z,33.20
2018-07-06T15:34:33.075Z,33.20
2018-07-06T15:37:06.972Z,33.10
2018-07-06T15:39:41.426Z,33.10
2018-07-06T15:42:14.827Z,33.10
2018-07-06T15:44:48.801Z,33.10
2018-07-06T15:47:22.960Z,33.10
2018-07-06T15:49:56.975Z,33.10
2018-07-06T15:52:31.482Z,33.00
2018-07-06T15:55:06.320Z,33.10
2018-07-06T15:57:40.429Z,33.10
2018-07-06T16:00:13.909Z,33.00
2018-07-06T16:02:47.593Z,33.00
2018-07-06T16:05:21.331Z,33.00
2018-07-06T16:07:55.313Z,33.00
2018-07-06T16:10:29.023Z,33.00
2018-07-06T16:13:03.613Z,33.00
2018-07-06T16:15:37.545Z,33.00
2018-07-06T16:18:11.571Z,33.00
2018-07-06T16:20:45.611Z,32.90
2018-07-06T16:23:19.440Z,32.90
2018-07-06T16:28:27.543Z,32.90
2018-07-06T16:31:01.514Z,32.90
2018-07-06T16:33:35.753Z,32.90
2018-07-06T16:36:09.249Z,32.90
2018-07-06T16:38:43.106Z,32.90
2018-07-06T16:41:17.039Z,32.90
2018-07-06T16:43:50.814Z,32.90
2018-07-06T16:46:25.143Z,32.90
2018-07-06T16:48:58.998Z,32.80
2018-07-06T16:51:32.761Z,32.90
2018-07-06T16:54:06.500Z,32.80
2018-07-06T16:56:40.354Z,32.80
2018-07-06T17:01:46.718Z,32.80
2018-07-06T17:04:20.780Z,32.80
2018-07-06T17:06:54.828Z,32.80
2018-07-06T17:09:28.902Z,32.80
2018-07-06T17:12:02.893Z,32.80
2018-07-06T17:14:37.188Z,32.80
2018-07-06T17:17:11.151Z,32.80
2018-07-06T17:19:45.186Z,32.80
2018-07-06T17:22:19.531Z,32.80
2018-07-06T17:24:53.392Z,32.80
2018-07-06T17:27:27.485Z,32.80
2018-07-06T17:32:33.797Z,32.80
2018-07-06T17:35:07.942Z,32.80
2018-07-06T17:37:42.023Z,32.80
2018-07-06T17:40:16.135Z,32.80
2018-07-06T18:18:35.690Z,32.70
2018-07-06T18:21:09.186Z,32.70
2018-07-06T18:23:42.991Z,31.50
2018-07-06T18:26:17.042Z,31.50
2018-07-06T18:28:52.871Z,31.60
2018-07-06T18:31:27.061Z,31.70
2018-07-06T18:34:01.131Z,31.70
2018-07-06T18:36:35.988Z,31.90
2018-07-06T18:39:09.988Z,31.90
2018-07-06T18:41:44.052Z,32.00
2018-07-06T18:44:18.028Z,32.10
2018-07-06T18:46:52.056Z,32.10
2018-07-06T18:49:25.751Z,32.20
2018-07-06T18:52:00.559Z,32.20
2018-07-06T18:54:34.385Z,32.30
2018-07-06T18:57:08.618Z,32.30
2018-07-06T18:59:42.750Z,32.30
2018-07-06T19:02:16.371Z,32.30
2018-07-06T19:07:22.657Z,32.30
2018-07-06T19:12:28.974Z,32.40
2018-07-06T19:15:03.427Z,32.30
2018-07-06T19:17:37.152Z,32.40
2018-07-06T19:20:11.187Z,32.30
2018-07-06T19:22:44.991Z,32.30
2018-07-06T19:27:51.587Z,32.30
2018-07-06T19:32:58.061Z,32.30
2018-07-06T19:35:32.197Z,32.30
2018-07-06T19:38:06.066Z,32.30
2018-07-06T19:40:40.131Z,32.30
2018-07-06T19:43:14.319Z,32.20
2018-07-06T19:45:48.497Z,32.20
2018-07-06T19:48:22.512Z,32.20
2018-07-06T19:50:56.498Z,32.20
2018-07-06T19:53:30.718Z,32.20
2018-07-06T19:56:04.681Z,32.20
2018-07-06T19:58:39.327Z,32.20
2018-07-06T20:03:44.909Z,32.20
2018-07-06T20:06:18.750Z,32.20
2018-07-06T20:09:06.659Z,32.10
2018-07-06T20:11:41.849Z,32.10
2018-07-06T20:14:15.628Z,32.10
2018-07-06T20:16:49.456Z,32.10
2018-07-06T20:24:29.017Z,32.10
2018-07-06T20:27:02.787Z,32.10
2018-07-06T20:29:36.608Z,32.00
2018-07-06T20:32:11.483Z,32.00
2018-07-06T20:34:45.496Z,32.00
2018-07-06T20:37:19.413Z,32.00
2018-07-06T20:44:57.456Z,32.00
2018-07-06T20:47:30.985Z,32.00
2018-07-06T20:50:04.713Z,31.90
2018-07-06T20:55:10.629Z,31.90
2018-07-06T20:57:44.682Z,31.90
2018-07-06T21:00:18.696Z,31.90
2018-07-06T21:02:52.645Z,31.90
2018-07-06T21:05:26.487Z,31.90
2018-07-06T21:07:59.988Z,31.90
2018-07-06T21:10:34.256Z,31.90
2018-07-06T21:28:48.171Z,31.80
2018-07-06T21:31:21.943Z,31.80
2018-07-06T21:33:56.571Z,31.10
2018-07-06T21:39:02.337Z,31.10
2018-07-06T21:44:08.402Z,31.20
2018-07-06T21:46:42.871Z,31.20
2018-07-06T21:49:16.956Z,31.30
2018-07-06T21:51:51.098Z,31.30
2018-07-06T21:54:25.450Z,31.40
2018-07-06T21:56:59.361Z,31.40
2018-07-06T21:59:33.370Z,31.50
2018-07-06T22:02:11.794Z,31.50
2018-07-06T22:04:47.455Z,31.50
2018-07-06T22:09:54.176Z,31.60
2018-07-06T22:15:01.500Z,31.60
2018-07-06T22:17:35.252Z,31.60
2018-07-06T22:20:09.026Z,31.60
2018-07-06T22:22:43.014Z,31.60
2018-07-06T22:25:17.221Z,31.60
2018-07-06T22:27:52.260Z,31.60
2018-07-06T22:30:25.795Z,31.60
2018-07-06T22:32:59.569Z,31.60
2018-07-06T22:35:34.760Z,31.60
2018-07-06T22:38:08.980Z,31.60
2018-07-06T22:40:42.583Z,31.60
2018-07-06T22:43:16.469Z,31.60
2018-07-06T22:45:50.915Z,31.60
2018-07-06T22:48:24.607Z,31.60
2018-07-06T22:50:58.258Z,31.60
2018-07-06T22:53:32.322Z,31.60
2018-07-06T22:56:05.538Z,31.70
2018-07-06T22:58:39.035Z,31.70
2018-07-06T23:03:46.005Z,31.70
2018-07-06T23:06:19.638Z,31.70
2018-07-06T23:11:26.200Z,31.70
2018-07-06T23:14:00.062Z,31.70
2018-07-06T23:16:34.446Z,31.70
2018-07-06T23:19:09.351Z,31.70
2018-07-06T23:21:43.272Z,31.80
2018-07-06T23:24:17.505Z,31.80
2018-07-06T23:26:51.186Z,31.80
2018-07-06T23:29:25.286Z,31.80
2018-07-06T23:31:58.516Z,31.80
2018-07-06T23:34:32.340Z,31.80
2018-07-06T23:37:07.326Z,31.80
2018-07-06T23:39:41.288Z,31.80
2018-07-06T23:42:15.491Z,31.80
2018-07-06T23:47:22.514Z,31.80
2018-07-06T23:49:56.119Z,31.80
2018-07-06T23:55:02.550Z,31.90
2018-07-06T23:57:36.480Z,31.90
